createdAt,value
2019-03-29T00:00:06.424Z,1019.07
2019-03-29T00:01:06.197Z,1019.09
2019-03-29T00:02:06.184Z,1019.07
2019-03-29T00:03:06.183Z,1019.06
2019-03-29T00:04:06.188Z,1019.06
2019-03-29T00:05:06.156Z,1019.03
2019-03-29T00:06:06.153Z,1019.06
2019-03-29T00:07:06.141Z,1019.03
2019-03-29T00:08:06.124Z,1019.03
2019-03-29T00:09:06.131Z,1019.02
2019-03-29T00:10:06.100Z,1018.99
2019-03-29T00:11:06.093Z,1019.03
2019-03-29T00:12:06.080Z,1019.01
2019-03-29T00:13:06.068Z,1019.02
2019-03-29T00:14:06.072Z,1019.00
2019-03-29T00:15:06.045Z,1019.00
2019-03-29T00:16:06.035Z,1019.01
2019-03-29T00:17:06.026Z,1019.02
2019-03-29T00:18:06.042Z,1019.02
2019-03-29T00:19:06.031Z,1018.99
2019-03-29T00:20:06.433Z,1018.97
2019-03-29T00:21:05.983Z,1018.94
2019-03-29T00:22:05.969Z,1018.97
2019-03-29T00:23:05.982Z,1018.95
2019-03-29T00:24:07.224Z,1018.93
2019-03-29T00:25:07.060Z,1018.90
2019-03-29T00:26:05.932Z,1018.93
2019-03-29T00:27:05.915Z,1018.90
2019-03-29T00:28:05.938Z,1018.91
2019-03-29T00:29:05.914Z,1018.90
2019-03-29T00:30:05.906Z,1018.87
2019-03-29T00:31:05.881Z,1018.88
2019-03-29T00:32:06.133Z,1018.85
2019-03-29T00:33:05.892Z,1018.83
2019-03-29T00:34:05.840Z,1018.82
2019-03-29T00:35:05.828Z,1018.85
2019-03-29T00:36:05.820Z,1018.79
2019-03-29T00:37:05.828Z,1018.78
2019-03-29T00:38:05.819Z,1018.79
2019-03-29T00:39:05.810Z,1018.75
2019-03-29T00:40:06.311Z,1018.69
2019-03-29T00:41:05.767Z,1018.66
2019-03-29T00:42:05.754Z,1018.69
2019-03-29T00:43:05.750Z,1018.67
2019-03-29T00:44:05.753Z,1018.69
2019-03-29T00:45:05.722Z,1018.71
2019-03-29T00:46:05.710Z,1018.70
2019-03-29T00:47:05.699Z,1018.66
2019-03-29T00:48:05.690Z,1018.68
2019-03-29T00:49:05.718Z,1018.69
2019-03-29T00:50:06.328Z,1018.67
2019-03-29T00:51:05.668Z,1018.68
2019-03-29T00:52:05.652Z,1018.67
2019-03-29T00:53:05.640Z,1018.66
2019-03-29T00:54:05.624Z,1018.62
2019-03-29T00:55:05.643Z,1018.60
2019-03-29T00:56:05.622Z,1018.59
2019-03-29T00:57:05.597Z,1018.56
2019-03-29T00:58:05.588Z,1018.56
2019-03-29T00:59:05.571Z,1018.56
2019-03-29T01:00:06.878Z,1018.50
2019-03-29T01:01:05.553Z,1018.52
2019-03-29T01:02:05.546Z,1018.49
2019-03-29T01:03:05.538Z,1018.43
2019-03-29T01:04:05.538Z,1018.44
2019-03-29T01:05:05.508Z,1018.43
2019-03-29T01:06:05.495Z,1018.43
2019-03-29T01:07:05.486Z,1018.43
2019-03-29T01:08:08.151Z,1018.39
2019-03-29T01:09:05.493Z,1018.39
2019-03-29T01:10:05.459Z,1018.39
2019-03-29T01:11:05.449Z,1018.39
2019-03-29T01:12:06.276Z,1018.39
2019-03-29T01:13:05.424Z,1018.38
2019-03-29T01:14:05.409Z,1018.39
2019-03-29T01:15:05.426Z,1018.37
2019-03-29T01:16:05.392Z,1018.35
2019-03-29T01:17:05.378Z,1018.33
2019-03-29T01:18:05.366Z,1018.33
2019-03-29T01:19:05.357Z,1018.30
2019-03-29T01:20:05.367Z,1018.30
2019-03-29T01:21:05.362Z,1018.25
2019-03-29T01:22:05.981Z,1018.24
2019-03-29T01:23:05.325Z,1018.21
2019-03-29T01:24:05.307Z,1018.25
2019-03-29T01:25:05.345Z,1018.21
2019-03-29T01:26:05.281Z,1018.20
2019-03-29T01:27:05.270Z,1018.20
2019-03-29T01:28:05.261Z,1018.20
2019-03-29T01:29:05.252Z,1018.20
2019-03-29T01:30:05.243Z,1018.24
2019-03-29T01:31:05.248Z,1018.22
2019-03-29T01:32:05.235Z,1018.16
2019-03-29T01:33:05.214Z,1018.13
2019-03-29T01:34:05.201Z,1018.10
2019-03-29T01:35:05.216Z,1018.15
2019-03-29T01:36:05.180Z,1018.07
2019-03-29T01:37:05.165Z,1018.08
2019-03-29T01:38:05.169Z,1018.10
2019-03-29T01:39:05.140Z,1018.07
2019-03-29T01:40:05.131Z,1018.10
2019-03-29T01:41:05.149Z,1018.05
2019-03-29T01:42:05.114Z,1018.06
2019-03-29T01:43:05.106Z,1018.00
2019-03-29T01:44:05.091Z,1018.01
2019-03-29T01:45:05.079Z,1018.02
2019-03-29T01:46:05.081Z,1018.01
2019-03-29T01:47:05.064Z,1017.99
2019-03-29T01:48:05.049Z,1017.98
2019-03-29T01:49:05.035Z,1018.04
2019-03-29T01:50:05.042Z,1017.99
2019-03-29T01:51:05.013Z,1018.00
2019-03-29T01:52:05.021Z,1017.98
2019-03-29T01:53:04.993Z,1017.94
2019-03-29T01:54:04.987Z,1017.93
2019-03-29T01:55:04.974Z,1017.92
2019-03-29T01:56:04.979Z,1017.87
2019-03-29T01:57:04.950Z,1017.88
2019-03-29T01:58:04.937Z,1017.87
2019-03-29T01:59:04.930Z,1017.79
2019-03-29T02:00:04.919Z,1017.74
2019-03-29T02:01:04.926Z,1017.78
2019-03-29T02:02:04.901Z,1017.75
2019-03-29T02:03:04.894Z,1017.77
2019-03-29T02:04:05.968Z,1017.70
2019-03-29T02:05:04.865Z,1017.71
2019-03-29T02:06:04.876Z,1017.70
2019-03-29T02:07:04.844Z,1017.69
2019-03-29T02:08:05.062Z,1017.66
2019-03-29T02:09:05.129Z,1017.66
2019-03-29T02:10:04.809Z,1017.63
2019-03-29T02:11:04.815Z,1017.58
2019-03-29T02:12:04.790Z,1017.62
2019-03-29T02:13:04.779Z,1017.59
2019-03-29T02:14:11.600Z,1017.61
2019-03-29T02:15:04.851Z,1017.65
2019-03-29T02:16:04.767Z,1017.62
2019-03-29T02:17:04.752Z,1017.58
2019-03-29T02:18:04.726Z,1017.59
2019-03-29T02:19:05.264Z,1017.56
2019-03-29T02:20:04.725Z,1017.51
2019-03-29T02:21:04.716Z,1017.51
2019-03-29T02:22:04.691Z,1017.51
2019-03-29T02:23:04.674Z,1017.54
2019-03-29T02:24:04.663Z,1017.50
2019-03-29T02:25:04.647Z,1017.53
2019-03-29T02:26:04.657Z,1017.50
2019-03-29T02:27:04.641Z,1017.51
2019-03-29T02:28:04.618Z,1017.43
2019-03-29T02:29:04.607Z,1017.43
2019-03-29T02:30:05.086Z,1017.45
2019-03-29T02:31:04.587Z,1017.43
2019-03-29T02:32:04.600Z,1017.45
2019-03-29T02:33:04.563Z,1017.41
2019-03-29T02:34:04.549Z,1017.39
2019-03-29T02:35:04.544Z,1017.42
2019-03-29T02:36:05.666Z,1017.39
2019-03-29T02:37:04.540Z,1017.37
2019-03-29T02:38:04.625Z,1017.35
2019-03-29T02:39:04.541Z,1017.38
2019-03-29T02:40:04.490Z,1017.40
2019-03-29T02:41:04.483Z,1017.40
2019-03-29T02:42:04.487Z,1017.37
2019-03-29T02:43:04.453Z,1017.36
2019-03-29T02:44:04.445Z,1017.39
2019-03-29T02:45:04.446Z,1017.31
2019-03-29T02:46:04.425Z,1017.34
2019-03-29T02:47:04.432Z,1017.30
2019-03-29T02:48:04.402Z,1017.28
2019-03-29T02:49:04.420Z,1017.32
2019-03-29T02:50:04.438Z,1017.28
2019-03-29T02:51:04.790Z,1017.25
2019-03-29T02:52:04.385Z,1017.26
2019-03-29T02:53:04.357Z,1017.27
2019-03-29T02:54:04.332Z,1017.27
2019-03-29T02:55:04.336Z,1017.25
2019-03-29T02:56:04.315Z,1017.20
2019-03-29T02:57:04.308Z,1017.26
2019-03-29T02:58:04.314Z,1017.28
2019-03-29T02:59:04.289Z,1017.25
2019-03-29T03:00:04.272Z,1017.28
2019-03-29T03:01:04.398Z,1017.26
2019-03-29T03:02:04.278Z,1017.30
2019-03-29T03:03:04.238Z,1017.30
2019-03-29T03:04:04.330Z,1017.31
2019-03-29T03:05:04.220Z,1017.27
2019-03-29T03:06:04.283Z,1017.30
2019-03-29T03:07:04.224Z,1017.26
2019-03-29T03:08:04.185Z,1017.29
2019-03-29T03:09:13.145Z,1017.26
2019-03-29T03:10:05.167Z,1017.26
2019-03-29T03:11:04.171Z,1017.27
2019-03-29T03:12:04.150Z,1017.27
2019-03-29T03:13:04.170Z,1017.29
2019-03-29T03:14:04.125Z,1017.27
2019-03-29T03:15:04.136Z,1017.28
2019-03-29T03:16:04.101Z,1017.29
2019-03-29T03:17:04.093Z,1017.29
2019-03-29T03:18:04.117Z,1017.31
2019-03-29T03:19:04.072Z,1017.27
2019-03-29T03:20:04.059Z,1017.29
2019-03-29T03:21:04.047Z,1017.32
2019-03-29T03:22:04.031Z,1017.31
2019-03-29T03:23:04.044Z,1017.35
2019-03-29T03:24:04.024Z,1017.35
2019-03-29T03:25:04.003Z,1017.37
2019-03-29T03:26:04.017Z,1017.36
2019-03-29T03:27:03.986Z,1017.36
2019-03-29T03:28:03.993Z,1017.35
2019-03-29T03:29:04.023Z,1017.39
2019-03-29T03:30:03.959Z,1017.33
2019-03-29T03:31:03.969Z,1017.31
2019-03-29T03:32:03.972Z,1017.38
2019-03-29T03:33:03.925Z,1017.38
2019-03-29T03:34:03.907Z,1017.38
2019-03-29T03:35:03.896Z,1017.36
2019-03-29T03:36:03.894Z,1017.37
2019-03-29T03:37:03.898Z,1017.39
2019-03-29T03:38:03.873Z,1017.34
2019-03-29T03:39:03.856Z,1017.32
2019-03-29T03:40:03.858Z,1017.33
2019-03-29T03:41:03.835Z,1017.36
2019-03-29T03:42:03.845Z,1017.34
2019-03-29T03:43:03.828Z,1017.32
2019-03-29T03:44:03.820Z,1017.37
2019-03-29T03:45:03.794Z,1017.38
2019-03-29T03:46:03.778Z,1017.35
2019-03-29T03:47:03.784Z,1017.36
2019-03-29T03:48:03.776Z,1017.37
2019-03-29T03:49:03.749Z,1017.39
2019-03-29T03:50:03.749Z,1017.39
2019-03-29T03:51:03.736Z,1017.40
2019-03-29T03:52:03.722Z,1017.44
2019-03-29T03:53:03.743Z,1017.43
2019-03-29T03:54:03.698Z,1017.42
2019-03-29T03:55:03.688Z,1017.42
2019-03-29T03:56:03.685Z,1017.38
2019-03-29T03:57:03.666Z,1017.43
2019-03-29T03:58:03.674Z,1017.39
2019-03-29T03:59:03.682Z,1017.40
2019-03-29T04:00:03.634Z,1017.43
2019-03-29T04:01:03.627Z,1017.43
2019-03-29T04:02:03.622Z,1017.44
2019-03-29T04:03:03.612Z,1017.45
2019-03-29T04:04:03.677Z,1017.45
2019-03-29T04:05:03.599Z,1017.48
2019-03-29T04:06:03.571Z,1017.48
2019-03-29T04:07:03.565Z,1017.42
2019-03-29T04:08:03.554Z,1017.43
2019-03-29T04:09:03.555Z,1017.42
2019-03-29T04:10:03.541Z,1017.41
2019-03-29T04:11:03.516Z,1017.45
2019-03-29T04:12:03.507Z,1017.41
2019-03-29T04:13:03.503Z,1017.42
2019-03-29T04:14:03.505Z,1017.41
2019-03-29T04:15:03.494Z,1017.40
2019-03-29T04:16:03.466Z,1017.35
2019-03-29T04:17:03.456Z,1017.39
2019-03-29T04:18:03.456Z,1017.38
2019-03-29T04:19:03.427Z,1017.39
2019-03-29T04:20:03.437Z,1017.38
2019-03-29T04:21:03.410Z,1017.41
2019-03-29T04:22:03.402Z,1017.44
2019-03-29T04:23:03.395Z,1017.40
2019-03-29T04:24:03.402Z,1017.40
2019-03-29T04:25:03.389Z,1017.42
2019-03-29T04:26:03.375Z,1017.44
2019-03-29T04:27:03.358Z,1017.42
2019-03-29T04:28:03.347Z,1017.39
2019-03-29T04:29:05.229Z,1017.38
2019-03-29T04:30:03.331Z,1017.34
2019-03-29T04:31:03.303Z,1017.37
2019-03-29T04:32:03.309Z,1017.36
2019-03-29T04:33:03.284Z,1017.42
2019-03-29T04:34:03.273Z,1017.36
2019-03-29T04:35:03.282Z,1017.35
2019-03-29T04:36:03.251Z,1017.33
2019-03-29T04:37:03.237Z,1017.36
2019-03-29T04:38:03.228Z,1017.34
2019-03-29T04:39:03.214Z,1017.34
2019-03-29T04:40:07.928Z,1017.35
2019-03-29T04:41:04.200Z,1017.34
2019-03-29T04:42:03.212Z,1017.33
2019-03-29T04:43:03.195Z,1017.31
2019-03-29T04:44:03.164Z,1017.31
2019-03-29T04:45:03.154Z,1017.29
2019-03-29T04:46:03.144Z,1017.35
2019-03-29T04:47:03.132Z,1017.30
2019-03-29T04:48:03.146Z,1017.27
2019-03-29T04:49:03.111Z,1017.33
2019-03-29T04:50:03.123Z,1017.31
2019-03-29T04:51:03.083Z,1017.29
2019-03-29T04:52:03.083Z,1017.32
2019-03-29T04:53:03.090Z,1017.25
2019-03-29T04:54:03.058Z,1017.27
2019-03-29T04:55:03.047Z,1017.20
2019-03-29T04:56:03.037Z,1017.26
2019-03-29T04:57:03.021Z,1017.24
2019-03-29T04:58:03.007Z,1017.22
2019-03-29T04:59:03.021Z,1017.22
2019-03-29T05:00:02.991Z,1017.26
2019-03-29T05:01:02.997Z,1017.22
2019-03-29T05:02:02.964Z,1017.29
2019-03-29T05:03:02.954Z,1017.27
2019-03-29T05:04:02.974Z,1017.21
2019-03-29T05:05:02.937Z,1017.26
2019-03-29T05:06:02.928Z,1017.24
2019-03-29T05:07:02.921Z,1017.19
2019-03-29T05:08:02.914Z,1017.22
2019-03-29T05:09:02.897Z,1017.19
2019-03-29T05:10:02.942Z,1017.25
2019-03-29T05:11:02.927Z,1017.25
2019-03-29T05:12:02.858Z,1017.25
2019-03-29T05:13:02.855Z,1017.24
2019-03-29T05:14:02.848Z,1017.23
2019-03-29T05:15:02.839Z,1017.25
2019-03-29T05:16:02.847Z,1017.24
2019-03-29T05:17:02.815Z,1017.23
2019-03-29T05:18:02.815Z,1017.27
2019-03-29T05:19:02.787Z,1017.27
2019-03-29T05:20:02.783Z,1017.27
2019-03-29T05:21:02.761Z,1017.26
2019-03-29T05:22:02.749Z,1017.35
2019-03-29T05:23:02.756Z,1017.32
2019-03-29T05:24:02.735Z,1017.37
2019-03-29T05:25:02.722Z,1017.33
2019-03-29T05:26:02.715Z,1017.33
2019-03-29T05:27:02.702Z,1017.37
2019-03-29T05:28:02.711Z,1017.30
2019-03-29T05:29:02.676Z,1017.33
2019-03-29T05:30:02.665Z,1017.35
2019-03-29T05:31:02.684Z,1017.38
2019-03-29T05:32:02.698Z,1017.33
2019-03-29T05:33:02.652Z,1017.37
2019-03-29T05:34:02.621Z,1017.35
2019-03-29T05:35:02.609Z,1017.32
2019-03-29T05:36:02.603Z,1017.33
2019-03-29T05:37:02.593Z,1017.31
2019-03-29T05:38:02.605Z,1017.29
2019-03-29T05:39:02.586Z,1017.36
2019-03-29T05:40:02.562Z,1017.29
2019-03-29T05:41:02.549Z,1017.22
2019-03-29T05:42:02.537Z,1017.23
2019-03-29T05:43:02.529Z,1017.22
2019-03-29T05:44:02.542Z,1017.22
2019-03-29T05:45:02.511Z,1017.25
2019-03-29T05:46:02.499Z,1017.25
2019-03-29T05:47:02.502Z,1017.22
2019-03-29T05:48:02.499Z,1017.23
2019-03-29T05:49:02.466Z,1017.23
2019-03-29T05:50:02.459Z,1017.24
2019-03-29T05:51:02.446Z,1017.20
2019-03-29T05:52:02.454Z,1017.17
2019-03-29T05:53:02.493Z,1017.18
2019-03-29T05:54:02.409Z,1017.16
2019-03-29T05:55:02.397Z,1017.14
2019-03-29T05:56:02.388Z,1017.14
2019-03-29T05:57:02.383Z,1017.12
2019-03-29T05:58:02.381Z,1017.18
2019-03-29T05:59:02.420Z,1017.19
2019-03-29T06:00:02.379Z,1017.21
2019-03-29T06:01:02.348Z,1017.19
2019-03-29T06:02:02.363Z,1017.20
2019-03-29T06:03:02.319Z,1017.21
2019-03-29T06:04:02.310Z,1017.19
2019-03-29T06:05:02.322Z,1017.21
2019-03-29T06:06:02.285Z,1017.16
2019-03-29T06:07:02.291Z,1017.17
2019-03-29T06:08:02.270Z,1017.20
2019-03-29T06:09:02.252Z,1017.21
2019-03-29T06:10:02.246Z,1017.22
2019-03-29T06:11:02.275Z,1017.19
2019-03-29T06:12:02.227Z,1017.18
2019-03-29T06:13:02.230Z,1017.11
2019-03-29T06:14:02.248Z,1017.08
2019-03-29T06:15:02.184Z,1017.06
2019-03-29T06:16:02.187Z,1017.08
2019-03-29T06:17:02.199Z,1017.11
2019-03-29T06:18:02.155Z,1017.08
2019-03-29T06:19:02.144Z,1017.13
2019-03-29T06:20:02.152Z,1017.11
2019-03-29T06:21:02.169Z,1017.05
2019-03-29T06:22:02.127Z,1017.06
2019-03-29T06:23:02.120Z,1017.09
2019-03-29T06:24:02.168Z,1017.07
2019-03-29T06:25:02.084Z,1017.01
2019-03-29T06:26:02.068Z,1017.01
2019-03-29T06:27:02.056Z,1016.97
2019-03-29T06:28:02.069Z,1016.99
2019-03-29T06:29:02.057Z,1016.96
2019-03-29T06:30:02.030Z,1016.99
2019-03-29T06:31:02.022Z,1017.03
2019-03-29T06:32:02.002Z,1016.99
2019-03-29T06:33:01.997Z,1017.06
2019-03-29T06:34:02.003Z,1017.03
2019-03-29T06:35:02.031Z,1017.10
2019-03-29T06:36:01.962Z,1017.05
2019-03-29T06:37:01.947Z,1017.00
2019-03-29T06:38:01.935Z,1017.02
2019-03-29T06:39:01.926Z,1017.03
2019-03-29T06:40:01.911Z,1017.00
2019-03-29T06:41:03.456Z,1017.02
2019-03-29T06:42:01.896Z,1017.01
2019-03-29T06:43:01.884Z,1017.01
2019-03-29T06:44:01.871Z,1017.01
2019-03-29T06:45:01.866Z,1017.02
2019-03-29T06:46:01.845Z,1017.02
2019-03-29T06:47:01.866Z,1017.04
2019-03-29T06:48:01.825Z,1017.01
2019-03-29T06:49:01.857Z,1017.00
2019-03-29T06:50:01.807Z,1016.99
2019-03-29T06:51:01.794Z,1017.00
2019-03-29T06:52:01.782Z,1016.97
2019-03-29T06:53:01.798Z,1017.02
2019-03-29T06:54:01.774Z,1016.97
2019-03-29T06:55:01.760Z,1016.97
2019-03-29T06:56:01.784Z,1017.01
2019-03-29T06:57:01.727Z,1017.01
2019-03-29T06:58:01.714Z,1017.02
2019-03-29T06:59:01.722Z,1017.01
2019-03-29T07:00:01.698Z,1017.00
2019-03-29T07:01:01.691Z,1016.94
2019-03-29T07:02:01.693Z,1016.98
2019-03-29T07:03:01.700Z,1016.95
2019-03-29T07:04:01.655Z,1016.98
2019-03-29T07:05:01.641Z,1016.97
2019-03-29T07:06:01.630Z,1017.02
2019-03-29T07:07:01.639Z,1017.00
2019-03-29T07:08:01.615Z,1017.02
2019-03-29T07:09:01.621Z,1016.97
2019-03-29T07:10:01.589Z,1017.04
2019-03-29T07:11:01.577Z,1016.97
2019-03-29T07:12:01.566Z,1017.02
2019-03-29T07:13:01.560Z,1017.02
2019-03-29T07:14:01.546Z,1016.98
2019-03-29T07:15:01.563Z,1016.98
2019-03-29T07:16:01.555Z,1017.00
2019-03-29T07:17:01.556Z,1016.98
2019-03-29T07:18:01.507Z,1016.96
2019-03-29T07:19:04.827Z,1016.98
2019-03-29T07:20:01.566Z,1016.96
2019-03-29T07:21:01.475Z,1017.01
2019-03-29T07:22:01.459Z,1016.96
2019-03-29T07:23:01.445Z,1016.97
2019-03-29T07:24:01.431Z,1016.96
2019-03-29T07:25:01.452Z,1017.00
2019-03-29T07:26:01.466Z,1016.99
2019-03-29T07:27:01.590Z,1016.99
2019-03-29T07:28:01.527Z,1017.01
2019-03-29T07:29:01.448Z,1017.02
2019-03-29T07:30:01.592Z,1016.96
2019-03-29T07:31:01.364Z,1017.02
2019-03-29T07:32:01.435Z,1017.00
2019-03-29T07:33:01.363Z,1016.98
2019-03-29T07:34:01.376Z,1017.02
2019-03-29T07:35:01.333Z,1017.00
2019-03-29T07:36:01.311Z,1016.99
2019-03-29T07:37:01.328Z,1016.98
2019-03-29T07:38:01.340Z,1016.93
2019-03-29T07:39:01.278Z,1016.98
2019-03-29T07:40:01.286Z,1016.87
2019-03-29T07:41:01.248Z,1016.95
2019-03-29T07:42:01.238Z,1016.98
2019-03-29T07:43:01.227Z,1016.96
2019-03-29T07:44:01.217Z,1016.98
2019-03-29T07:45:01.239Z,1016.96
2019-03-29T07:46:01.209Z,1017.02
2019-03-29T07:47:01.188Z,1016.97
2019-03-29T07:48:01.191Z,1016.99
2019-03-29T07:49:01.183Z,1017.01
2019-03-29T07:50:01.201Z,1017.01
2019-03-29T07:51:01.144Z,1017.04
2019-03-29T07:52:01.140Z,1017.05
2019-03-29T07:53:01.132Z,1017.02
2019-03-29T07:54:01.114Z,1017.04
2019-03-29T07:55:01.099Z,1017.06
2019-03-29T07:56:01.104Z,1017.06
2019-03-29T07:57:01.081Z,1017.04
2019-03-29T07:58:01.096Z,1017.01
2019-03-29T07:59:01.114Z,1017.03
2019-03-29T08:00:01.070Z,1017.02
2019-03-29T08:01:01.037Z,1017.03
2019-03-29T08:02:02.329Z,1016.99
2019-03-29T08:03:01.021Z,1016.99
2019-03-29T08:04:01.004Z,1016.97
2019-03-29T08:05:01.011Z,1017.00
2019-03-29T08:06:00.980Z,1017.00
2019-03-29T08:07:00.973Z,1017.02
2019-03-29T08:08:00.973Z,1017.01
2019-03-29T08:09:01.305Z,1017.03
2019-03-29T08:10:03.691Z,1017.02
2019-03-29T08:11:00.928Z,1017.01
2019-03-29T08:12:00.918Z,1017.01
2019-03-29T08:13:00.902Z,1017.06
2019-03-29T08:14:00.890Z,1017.05
2019-03-29T08:15:00.879Z,1017.08
2019-03-29T08:16:00.890Z,1017.02
2019-03-29T08:17:00.861Z,1017.06
2019-03-29T08:18:01.723Z,1017.02
2019-03-29T08:19:00.874Z,1017.02
2019-03-29T08:20:24.992Z,1016.98
2019-03-29T08:21:01.836Z,1016.97
2019-03-29T08:22:00.803Z,1016.99
2019-03-29T08:23:00.792Z,1017.00
2019-03-29T08:24:00.781Z,1017.03
2019-03-29T08:25:00.791Z,1017.02
2019-03-29T08:26:00.761Z,1017.02
2019-03-29T08:27:00.767Z,1017.06
2019-03-29T08:28:00.735Z,1016.99
2019-03-29T08:29:00.736Z,1017.03
2019-03-29T08:30:00.721Z,1017.05
2019-03-29T08:31:00.752Z,1017.03
2019-03-29T08:32:00.726Z,1016.98
2019-03-29T08:33:00.682Z,1016.97
2019-03-29T08:34:00.689Z,1016.96
2019-03-29T08:35:00.666Z,1017.01
2019-03-29T08:36:00.651Z,1017.00
2019-03-29T08:37:00.661Z,1016.97
2019-03-29T08:38:00.629Z,1016.99
2019-03-29T08:39:00.623Z,1016.98
2019-03-29T08:40:00.623Z,1016.92
2019-03-29T08:41:00.655Z,1016.91
2019-03-29T08:42:00.919Z,1016.90
2019-03-29T08:43:00.573Z,1016.94
2019-03-29T08:44:00.565Z,1016.95
2019-03-29T08:45:00.554Z,1016.91
2019-03-29T08:46:00.548Z,1016.92
2019-03-29T08:47:00.546Z,1016.91
2019-03-29T08:48:02.186Z,1016.89
2019-03-29T08:49:00.512Z,1016.87
2019-03-29T08:50:00.537Z,1016.86
2019-03-29T08:51:00.491Z,1016.89
2019-03-29T08:52:00.479Z,1016.87
2019-03-29T08:53:00.461Z,1016.88
2019-03-29T08:54:00.457Z,1016.82
2019-03-29T08:55:00.465Z,1016.82
2019-03-29T08:56:00.456Z,1016.84
2019-03-29T08:57:00.425Z,1016.83
2019-03-29T08:58:00.413Z,1016.82
2019-03-29T08:59:00.399Z,1016.82
2019-03-29T09:00:00.448Z,1016.81
2019-03-29T09:01:00.431Z,1016.75
2019-03-29T09:02:00.427Z,1016.76
2019-03-29T09:03:00.357Z,1016.70
2019-03-29T09:04:05.278Z,1016.73
2019-03-29T09:05:01.328Z,1016.75
2019-03-29T09:06:00.320Z,1016.75
2019-03-29T09:07:00.334Z,1016.71
2019-03-29T09:08:00.302Z,1016.72
2019-03-29T09:09:00.292Z,1016.74
2019-03-29T09:10:00.442Z,1016.73
2019-03-29T09:11:00.281Z,1016.69
2019-03-29T09:12:13.349Z,1016.76
2019-03-29T09:13:04.206Z,1016.72
2019-03-29T09:14:00.233Z,1016.65
2019-03-29T09:15:03.480Z,1016.67
2019-03-29T09:16:00.218Z,1016.61
2019-03-29T09:17:00.232Z,1016.68
2019-03-29T09:18:00.351Z,1016.67
2019-03-29T09:19:00.177Z,1016.67
2019-03-29T09:20:00.362Z,1016.69
2019-03-29T09:21:00.172Z,1016.64
2019-03-29T09:22:00.233Z,1016.62
2019-03-29T09:23:00.209Z,1016.66
2019-03-29T09:24:00.127Z,1016.61
2019-03-29T09:25:00.263Z,1016.60
2019-03-29T09:26:00.103Z,1016.59
2019-03-29T09:27:00.111Z,1016.62
2019-03-29T09:28:00.109Z,1016.57
2019-03-29T09:29:00.074Z,1016.57
2019-03-29T09:30:00.233Z,1016.57
2019-03-29T09:31:00.054Z,1016.61
2019-03-29T09:32:00.048Z,1016.56
2019-03-29T09:33:00.030Z,1016.57
2019-03-29T09:34:00.037Z,1016.56
2019-03-29T09:35:00.015Z,1016.59
2019-03-29T09:35:59.996Z,1016.55
2019-03-29T09:37:00.364Z,1016.54
2019-03-29T09:37:59.990Z,1016.48
2019-03-29T09:38:59.960Z,1016.51
2019-03-29T09:39:59.951Z,1016.51
2019-03-29T09:40:59.945Z,1016.51
2019-03-29T09:41:59.980Z,1016.49
2019-03-29T09:43:07.096Z,1016.52
2019-03-29T09:44:00.921Z,1016.51
2019-03-29T09:44:59.902Z,1016.45
2019-03-29T09:46:03.172Z,1016.50
2019-03-29T09:46:59.995Z,1016.45
2019-03-29T09:47:59.870Z,1016.47
2019-03-29T09:48:59.849Z,1016.46
2019-03-29T09:49:59.843Z,1016.45
2019-03-29T09:50:59.827Z,1016.45
2019-03-29T09:51:59.816Z,1016.43
2019-03-29T09:53:01.346Z,1016.38
2019-03-29T09:53:59.805Z,1016.36
2019-03-29T09:54:59.788Z,1016.37
2019-03-29T09:55:59.781Z,1016.38
2019-03-29T09:56:59.760Z,1016.39
2019-03-29T09:57:59.771Z,1016.33
2019-03-29T09:58:59.765Z,1016.35
2019-03-29T09:59:59.731Z,1016.33
2019-03-29T10:00:59.726Z,1016.30
2019-03-29T10:01:59.710Z,1016.34
2019-03-29T10:02:59.722Z,1016.32
2019-03-29T10:03:59.738Z,1016.37
2019-03-29T10:04:59.752Z,1016.28
2019-03-29T10:05:59.665Z,1016.28
2019-03-29T10:06:59.656Z,1016.22
2019-03-29T10:07:59.663Z,1016.24
2019-03-29T10:08:59.674Z,1016.26
2019-03-29T10:09:59.620Z,1016.20
2019-03-29T10:10:59.609Z,1016.19
2019-03-29T10:11:59.598Z,1016.23
2019-03-29T10:12:59.595Z,1016.17
2019-03-29T10:13:59.582Z,1016.17
2019-03-29T10:14:59.588Z,1016.13
2019-03-29T10:15:59.559Z,1016.09
2019-03-29T10:16:59.593Z,1016.08
2019-03-29T10:17:59.532Z,1016.08
2019-03-29T10:18:59.527Z,1016.06
2019-03-29T10:19:59.539Z,1016.07
2019-03-29T10:20:59.501Z,1016.05
2019-03-29T10:21:59.488Z,1016.03
2019-03-29T10:22:59.496Z,1016.01
2019-03-29T10:23:59.490Z,1016.04
2019-03-29T10:25:01.964Z,1016.01
2019-03-29T10:25:59.455Z,1016.02
2019-03-29T10:26:59.443Z,1016.01
2019-03-29T10:27:59.452Z,1015.98
2019-03-29T10:28:59.412Z,1015.98
2019-03-29T10:29:59.406Z,1015.97
2019-03-29T10:30:59.399Z,1015.94
2019-03-29T10:31:59.382Z,1015.86
2019-03-29T10:32:59.376Z,1015.89
2019-03-29T10:33:59.445Z,1015.87
2019-03-29T10:34:59.360Z,1015.81
2019-03-29T10:35:59.335Z,1015.80
2019-03-29T10:36:59.338Z,1015.80
2019-03-29T10:37:59.317Z,1015.78
2019-03-29T10:38:59.328Z,1015.74
2019-03-29T10:39:59.298Z,1015.72
2019-03-29T10:40:59.280Z,1015.74
2019-03-29T10:41:59.368Z,1015.73
2019-03-29T10:42:59.258Z,1015.75
2019-03-29T10:43:59.251Z,1015.74
2019-03-29T10:44:59.286Z,1015.74
2019-03-29T10:45:59.275Z,1015.73
2019-03-29T10:46:59.216Z,1015.71
2019-03-29T10:47:59.218Z,1015.66
2019-03-29T10:48:59.219Z,1015.65
2019-03-29T10:49:59.182Z,1015.66
2019-03-29T10:50:59.174Z,1015.64
2019-03-29T10:51:59.168Z,1015.60
2019-03-29T10:52:59.147Z,1015.59
2019-03-29T10:53:59.139Z,1015.56
2019-03-29T10:54:59.146Z,1015.56
2019-03-29T10:55:59.127Z,1015.56
2019-03-29T10:56:59.110Z,1015.59
2019-03-29T10:57:59.100Z,1015.59
2019-03-29T10:58:59.087Z,1015.57
2019-03-29T10:59:59.097Z,1015.57
2019-03-29T11:00:59.060Z,1015.51
2019-03-29T11:01:59.055Z,1015.43
2019-03-29T11:02:59.085Z,1015.41
2019-03-29T11:03:59.027Z,1015.43
2019-03-29T11:04:59.053Z,1015.44
2019-03-29T11:05:59.064Z,1015.45
2019-03-29T11:06:59.067Z,1015.47
2019-03-29T11:07:58.990Z,1015.45
2019-03-29T11:08:58.986Z,1015.42
2019-03-29T11:09:58.983Z,1015.37
2019-03-29T11:10:58.957Z,1015.29
2019-03-29T11:11:58.954Z,1015.34
2019-03-29T11:13:11.739Z,1015.29
2019-03-29T11:13:59.931Z,1015.30
2019-03-29T11:14:58.929Z,1015.26
2019-03-29T11:15:58.903Z,1015.26
2019-03-29T11:16:58.893Z,1015.26
2019-03-29T11:17:58.880Z,1015.29
2019-03-29T11:18:58.873Z,1015.29
2019-03-29T11:19:58.886Z,1015.34
2019-03-29T11:20:58.847Z,1015.34
2019-03-29T11:21:58.834Z,1015.39
2019-03-29T11:22:58.825Z,1015.38
2019-03-29T11:23:58.819Z,1015.38
2019-03-29T11:24:58.816Z,1015.47
2019-03-29T11:25:58.885Z,1015.43
2019-03-29T11:26:58.841Z,1015.43
2019-03-29T11:27:58.839Z,1015.44
2019-03-29T11:28:58.760Z,1015.37
2019-03-29T11:29:58.772Z,1015.26
2019-03-29T11:30:58.741Z,1015.17
2019-03-29T11:31:58.733Z,1015.14
2019-03-29T11:32:58.711Z,1015.08
2019-03-29T11:33:58.706Z,1015.11
2019-03-29T11:34:58.693Z,1015.10
2019-03-29T11:35:58.697Z,1015.13
2019-03-29T11:36:58.679Z,1015.13
2019-03-29T11:37:58.664Z,1015.08
2019-03-29T11:38:58.648Z,1015.07
2019-03-29T11:39:58.638Z,1015.08
2019-03-29T11:41:21.381Z,1015.07
2019-03-29T11:42:21.322Z,1015.07
2019-03-29T11:43:27.000Z,1015.04
2019-03-29T11:44:22.299Z,1015.08
2019-03-29T11:45:21.309Z,1015.00
2019-03-29T11:46:21.282Z,1014.98
2019-03-29T11:47:21.263Z,1014.96
2019-03-29T11:48:21.253Z,1014.99
2019-03-29T11:49:21.247Z,1014.99
2019-03-29T11:50:21.252Z,1015.04
2019-03-29T11:51:21.248Z,1015.11
2019-03-29T11:52:21.215Z,1015.03
2019-03-29T11:53:21.222Z,1015.07
2019-03-29T11:54:21.207Z,1014.94
2019-03-29T11:55:21.177Z,1014.92
2019-03-29T11:56:21.185Z,1014.89
2019-03-29T11:57:21.169Z,1014.83
2019-03-29T11:58:21.156Z,1014.81
2019-03-29T11:59:21.143Z,1014.74
2019-03-29T12:00:21.132Z,1014.72
2019-03-29T12:01:21.136Z,1014.71
2019-03-29T12:02:31.101Z,1014.71
2019-03-29T12:03:22.100Z,1014.67
2019-03-29T12:04:21.088Z,1014.71
2019-03-29T12:05:21.079Z,1014.66